createdAt,value
2018-11-01T00:01:44.732Z,5.50
2018-11-01T00:04:13.065Z,5.40
2018-11-01T00:06:41.178Z,5.30
2018-11-01T00:09:14.446Z,5.30
2018-11-01T00:11:42.527Z,5.20
2018-11-01T00:14:10.719Z,5.20
2018-11-01T00:16:38.917Z,5.20
2018-11-01T00:19:07.068Z,5.10
2018-11-01T00:21:35.231Z,5.10
2018-11-01T00:24:03.427Z,5.10
2018-11-01T00:26:32.528Z,5.30
2018-11-01T00:29:00.731Z,5.20
2018-11-01T00:31:28.855Z,5.30
2018-11-01T00:33:57.051Z,5.20
2018-11-01T00:36:25.220Z,5.10
2018-11-01T00:38:53.431Z,5.00
2018-11-01T00:41:21.574Z,4.90
2018-11-01T00:43:49.730Z,4.80
2018-11-01T00:46:17.932Z,4.80
2018-11-01T00:48:46.100Z,4.80
2018-11-01T00:51:14.358Z,4.90
2018-11-01T00:53:42.552Z,4.90
2018-11-01T00:56:10.683Z,4.80
2018-11-01T00:58:38.776Z,4.80
2018-11-01T01:01:06.971Z,4.70
2018-11-01T01:03:35.137Z,4.70
2018-11-01T01:06:03.316Z,4.80
2018-11-01T01:08:31.464Z,4.80
2018-11-01T01:10:59.579Z,4.70
2018-11-01T01:13:27.719Z,4.80
2018-11-01T01:15:55.954Z,4.80
2018-11-01T01:18:24.210Z,4.80
2018-11-01T01:20:52.419Z,4.80
2018-11-01T01:23:20.521Z,4.80
2018-11-01T01:25:48.703Z,4.80
2018-11-01T01:28:16.770Z,4.90
2018-11-01T01:30:44.950Z,4.90
2018-11-01T01:33:13.117Z,4.90
2018-11-01T01:35:41.317Z,4.80
2018-11-01T01:38:09.467Z,4.80
2018-11-01T01:40:37.632Z,4.70
2018-11-01T01:43:05.818Z,4.70
2018-11-01T01:45:33.986Z,4.70
2018-11-01T01:48:02.224Z,4.80
2018-11-01T01:50:30.383Z,4.80
2018-11-01T01:52:58.521Z,4.70
2018-11-01T01:55:26.708Z,4.70
2018-11-01T01:57:54.853Z,4.60
2018-11-01T02:00:23.027Z,4.60
2018-11-01T02:02:52.203Z,4.60
2018-11-01T02:05:20.365Z,4.60
2018-11-01T02:07:48.485Z,4.60
2018-11-01T02:10:17.643Z,4.60
2018-11-01T02:12:45.762Z,4.50
2018-11-01T02:15:16.152Z,4.50
2018-11-01T02:17:44.748Z,4.50
2018-11-01T02:20:14.769Z,4.50
2018-11-01T02:22:43.674Z,4.50
2018-11-01T02:25:11.828Z,4.50
2018-11-01T02:27:45.511Z,4.40
2018-11-01T02:30:14.732Z,4.40
2018-11-01T02:32:43.421Z,4.40
2018-11-01T02:35:12.831Z,4.40
2018-11-01T02:37:41.213Z,4.50
2018-11-01T02:40:09.977Z,4.50
2018-11-01T02:42:38.271Z,4.50
2018-11-01T02:45:07.179Z,4.60
2018-11-01T02:47:35.436Z,4.60
2018-11-01T02:50:03.547Z,4.60
2018-11-01T02:52:33.202Z,4.50
2018-11-01T02:55:01.584Z,4.50
2018-11-01T02:57:29.671Z,4.50
2018-11-01T02:59:57.871Z,4.40
2018-11-01T03:02:26.144Z,4.40
2018-11-01T03:04:54.413Z,4.30
2018-11-01T03:07:22.615Z,4.30
2018-11-01T03:09:50.766Z,4.30
2018-11-01T03:12:18.916Z,4.40
2018-11-01T03:14:46.995Z,4.30
2018-11-01T03:17:15.240Z,4.40
2018-11-01T03:19:43.383Z,4.40
2018-11-01T03:22:11.514Z,4.40
2018-11-01T03:24:39.606Z,4.40
2018-11-01T03:27:07.807Z,4.30
2018-11-01T03:29:35.971Z,4.30
2018-11-01T03:32:04.351Z,4.20
2018-11-01T03:34:32.506Z,4.20
2018-11-01T03:37:00.676Z,4.30
2018-11-01T03:39:28.847Z,4.40
2018-11-01T03:41:57.033Z,4.50
2018-11-01T03:44:25.209Z,4.50
2018-11-01T03:46:53.373Z,4.40
2018-11-01T03:49:21.567Z,4.40
2018-11-01T03:51:49.734Z,4.40
2018-11-01T03:54:17.955Z,4.30
2018-11-01T03:56:46.116Z,4.20
2018-11-01T03:59:14.288Z,4.30
2018-11-01T04:01:42.430Z,4.30
2018-11-01T04:04:10.608Z,4.30
2018-11-01T04:06:38.805Z,4.30
2018-11-01T04:09:09.268Z,4.20
2018-11-01T04:11:37.575Z,4.20
2018-11-01T04:14:06.004Z,4.20
2018-11-01T04:16:34.140Z,4.30
2018-11-01T04:19:02.313Z,4.30
2018-11-01T04:21:31.515Z,4.20
2018-11-01T04:23:59.767Z,4.20
2018-11-01T04:26:28.236Z,4.20
2018-11-01T04:28:56.755Z,4.20
2018-11-01T04:31:24.927Z,4.20
2018-11-01T04:33:53.168Z,4.20
2018-11-01T04:36:21.326Z,4.30
2018-11-01T04:38:49.448Z,4.30
2018-11-01T04:41:17.540Z,4.30
2018-11-01T04:43:45.691Z,4.20
2018-11-01T04:46:13.909Z,4.10
2018-11-01T04:48:42.477Z,4.10
2018-11-01T04:51:10.613Z,4.10
2018-11-01T04:53:38.793Z,4.10
2018-11-01T04:56:06.968Z,4.10
2018-11-01T04:58:35.436Z,4.00
2018-11-01T05:01:03.557Z,4.00
2018-11-01T05:03:31.812Z,4.00
2018-11-01T05:05:59.986Z,4.10
2018-11-01T05:08:28.152Z,4.00
2018-11-01T05:10:56.383Z,4.10
2018-11-01T05:13:24.491Z,4.20
2018-11-01T05:15:52.660Z,4.20
2018-11-01T05:18:20.844Z,4.30
2018-11-01T05:20:49.006Z,4.40
2018-11-01T05:23:17.083Z,4.40
2018-11-01T05:25:45.253Z,4.40
2018-11-01T05:28:13.344Z,4.30
2018-11-01T05:30:41.497Z,4.30
2018-11-01T05:33:09.592Z,4.40
2018-11-01T05:35:37.752Z,4.50
2018-11-01T05:38:06.061Z,4.40
2018-11-01T05:40:34.121Z,4.40
2018-11-01T05:43:02.355Z,4.50
2018-11-01T05:45:30.448Z,4.40
2018-11-01T05:47:58.618Z,4.50
2018-11-01T05:50:26.795Z,4.40
2018-11-01T05:52:54.860Z,4.40
2018-11-01T05:55:23.228Z,4.30
2018-11-01T05:57:51.354Z,4.20
2018-11-01T06:00:19.502Z,4.30
2018-11-01T06:02:48.892Z,4.30
2018-11-01T06:05:17.378Z,4.40
2018-11-01T06:07:48.824Z,4.50
2018-11-01T06:10:16.915Z,4.70
2018-11-01T06:12:45.111Z,4.60
2018-11-01T06:15:13.282Z,4.50
2018-11-01T06:17:41.755Z,4.50
2018-11-01T06:20:10.720Z,4.70
2018-11-01T06:22:38.844Z,4.60
2018-11-01T06:25:07.509Z,4.90
2018-11-01T06:27:35.671Z,5.00
2018-11-01T06:30:04.903Z,5.20
2018-11-01T06:32:33.031Z,5.50
2018-11-01T06:35:02.956Z,5.80
2018-11-01T06:37:31.096Z,6.40
2018-11-01T06:39:59.205Z,6.50
2018-11-01T06:42:27.372Z,6.60
2018-11-01T06:44:55.582Z,6.70
2018-11-01T06:47:23.744Z,6.70
2018-11-01T06:49:51.949Z,6.80
2018-11-01T06:52:20.131Z,6.80
2018-11-01T06:54:48.276Z,6.90
2018-11-01T06:57:16.441Z,7.00
2018-11-01T06:59:44.583Z,7.10
2018-11-01T07:02:12.696Z,7.20
2018-11-01T07:04:40.839Z,7.30
2018-11-01T07:07:09.017Z,7.40
2018-11-01T07:09:37.101Z,7.50
2018-11-01T07:12:05.324Z,7.70
2018-11-01T07:14:33.456Z,7.80
2018-11-01T07:17:01.687Z,8.00
2018-11-01T07:19:29.807Z,8.20
2018-11-01T07:21:57.918Z,8.40
2018-11-01T07:24:26.028Z,8.50
2018-11-01T07:26:54.100Z,8.70
2018-11-01T07:29:22.187Z,8.80
2018-11-01T07:31:50.349Z,9.00
2018-11-01T07:34:18.422Z,9.20
2018-11-01T07:36:47.436Z,9.30
2018-11-01T07:39:15.601Z,9.40
2018-11-01T07:41:43.804Z,9.40
2018-11-01T07:44:11.984Z,9.50
2018-11-01T07:46:40.141Z,9.50
2018-11-01T07:49:08.520Z,9.70
2018-11-01T07:51:36.733Z,9.80
2018-11-01T07:54:05.121Z,10.00
2018-11-01T07:56:33.353Z,10.30
2018-11-01T07:59:01.493Z,10.60
2018-11-01T08:01:29.576Z,10.70
2018-11-01T08:03:57.801Z,10.90
2018-11-01T08:06:25.948Z,11.10
2018-11-01T08:08:54.132Z,11.50
2018-11-01T08:11:22.287Z,11.90
2018-11-01T08:13:50.457Z,12.50
2018-11-01T08:16:18.623Z,13.40
2018-11-01T08:18:46.805Z,14.20
2018-11-01T08:21:15.092Z,14.70
2018-11-01T08:23:43.143Z,14.80
2018-11-01T08:26:11.359Z,15.00
2018-11-01T08:28:39.487Z,15.30
2018-11-01T08:31:07.606Z,15.40
2018-11-01T08:33:35.735Z,15.80
2018-11-01T08:36:03.845Z,15.60
2018-11-01T08:38:32.001Z,15.10
2018-11-01T08:41:00.224Z,14.40
2018-11-01T08:43:28.340Z,14.30
2018-11-01T08:45:56.531Z,14.70
2018-11-01T08:48:24.695Z,15.10
2018-11-01T08:50:52.898Z,15.50
2018-11-01T08:53:21.067Z,15.30
2018-11-01T08:55:49.235Z,14.80
2018-11-01T08:58:17.403Z,14.50
2018-11-01T09:00:45.575Z,14.30
2018-11-01T09:03:13.773Z,14.00
2018-11-01T09:05:41.936Z,14.20
2018-11-01T09:08:10.236Z,14.80
2018-11-01T09:10:38.373Z,15.50
2018-11-01T09:13:06.458Z,15.90
2018-11-01T09:15:34.610Z,16.00
2018-11-01T09:18:02.810Z,15.60
2018-11-01T09:20:30.960Z,15.90
2018-11-01T09:22:59.143Z,16.20
2018-11-01T09:25:27.349Z,16.70
2018-11-01T09:27:55.476Z,16.70
2018-11-01T09:30:23.622Z,17.20
2018-11-01T09:32:51.722Z,17.50
2018-11-01T09:35:19.913Z,17.30
2018-11-01T09:37:48.080Z,16.90
2018-11-01T09:40:16.551Z,16.50
2018-11-01T09:42:45.231Z,16.40
2018-11-01T09:45:13.491Z,16.80
2018-11-01T09:47:41.967Z,16.70
2018-11-01T09:50:10.792Z,16.80
2018-11-01T09:52:39.256Z,17.40
2018-11-01T09:55:07.394Z,17.60
2018-11-01T09:57:35.917Z,17.90
2018-11-01T10:00:05.040Z,17.80
2018-11-01T10:02:34.210Z,17.60
2018-11-01T10:05:02.335Z,17.00
2018-11-01T10:07:30.460Z,17.30
2018-11-01T10:09:58.580Z,17.20
2018-11-01T10:12:26.720Z,16.60
2018-11-01T10:14:54.916Z,16.00
2018-11-01T10:17:24.443Z,16.00
2018-11-01T10:19:52.067Z,15.80
2018-11-01T10:22:20.388Z,15.90
2018-11-01T10:24:48.437Z,15.90
2018-11-01T10:27:19.510Z,15.60
2018-11-01T10:29:44.788Z,15.40
2018-11-01T10:32:12.943Z,15.60
2018-11-01T10:34:41.199Z,15.70
2018-11-01T10:37:09.371Z,15.50
2018-11-01T10:39:37.456Z,15.40
2018-11-01T10:42:05.786Z,15.20
2018-11-01T10:44:33.905Z,15.00
2018-11-01T10:47:02.096Z,15.00
2018-11-01T10:49:30.268Z,15.00
2018-11-01T10:51:58.456Z,15.10
2018-11-01T10:54:26.685Z,15.20
2018-11-01T10:56:54.787Z,15.20
2018-11-01T10:59:22.947Z,15.20
2018-11-01T11:01:56.565Z,15.10
2018-11-01T11:04:24.756Z,15.10
2018-11-01T11:06:53.926Z,15.10
2018-11-01T11:09:22.111Z,15.10
2018-11-01T11:11:50.287Z,15.10
2018-11-01T11:14:18.520Z,15.00
2018-11-01T11:16:46.693Z,15.10
2018-11-01T11:19:14.858Z,15.00
2018-11-01T11:21:43.173Z,15.10
2018-11-01T11:24:11.288Z,15.00
2018-11-01T11:26:39.417Z,14.90
2018-11-01T11:29:07.530Z,14.70
2018-11-01T11:31:35.716Z,14.70
2018-11-01T11:34:03.876Z,14.60
2018-11-01T11:36:32.051Z,14.60
2018-11-01T11:39:00.266Z,14.60
2018-11-01T11:41:28.401Z,14.60
2018-11-01T11:43:56.548Z,14.60
2018-11-01T11:46:24.754Z,14.50
2018-11-01T11:48:52.909Z,14.40
2018-11-01T11:51:21.157Z,14.60
2018-11-01T11:53:49.271Z,14.50
2018-11-01T11:56:17.525Z,14.30
2018-11-01T11:58:45.692Z,14.30
2018-11-01T12:01:13.868Z,14.30
2018-11-01T12:03:42.337Z,14.30
2018-11-01T12:06:10.570Z,14.20
2018-11-01T12:08:38.546Z,14.30
2018-11-01T12:11:06.704Z,14.20
2018-11-01T12:13:34.863Z,14.10
2018-11-01T12:16:03.021Z,14.20
2018-11-01T12:18:31.203Z,14.10
2018-11-01T12:20:59.432Z,14.10
2018-11-01T12:23:27.535Z,14.10
2018-11-01T12:25:55.823Z,14.10
2018-11-01T12:28:24.021Z,14.00
2018-11-01T12:30:52.179Z,14.00
2018-11-01T12:33:20.354Z,14.00
2018-11-01T12:35:48.601Z,13.90
2018-11-01T12:38:16.810Z,13.90
2018-11-01T12:40:44.892Z,13.90
2018-11-01T12:43:13.034Z,13.80
2018-11-01T12:45:41.255Z,13.90
2018-11-01T12:48:09.404Z,13.80
2018-11-01T12:50:37.598Z,13.80
2018-11-01T12:53:05.872Z,13.80
2018-11-01T12:55:34.035Z,13.80
2018-11-01T12:58:02.207Z,13.70
2018-11-01T13:00:30.387Z,13.70
2018-11-01T13:02:58.648Z,13.70
2018-11-01T13:05:26.852Z,13.60
2018-11-01T13:07:55.030Z,13.60
2018-11-01T13:10:23.168Z,13.60
2018-11-01T13:12:51.424Z,13.70
2018-11-01T13:15:19.540Z,13.60
2018-11-01T13:17:47.741Z,13.70
2018-11-01T13:20:15.894Z,13.70
2018-11-01T13:22:44.676Z,13.70
2018-11-01T13:25:12.843Z,13.70
2018-11-01T13:27:41.211Z,13.70
2018-11-01T13:30:11.713Z,13.70
2018-11-01T13:32:39.819Z,13.70
2018-11-01T13:35:08.044Z,13.70
2018-11-01T13:37:36.143Z,13.70
2018-11-01T13:40:04.523Z,13.70
2018-11-01T13:42:32.528Z,13.70
2018-11-01T13:45:00.680Z,13.70
2018-11-01T13:47:29.035Z,13.70
2018-11-01T13:49:57.048Z,13.70
2018-11-01T13:52:25.202Z,13.70
2018-11-01T13:54:53.410Z,13.80
2018-11-01T13:57:21.560Z,13.80
2018-11-01T13:59:49.734Z,13.80
2018-11-01T14:02:17.910Z,13.80
2018-11-01T14:04:46.140Z,13.70
2018-11-01T14:07:14.272Z,13.70
2018-11-01T14:09:42.476Z,13.70
2018-11-01T14:12:10.607Z,13.70
2018-11-01T14:15:10.986Z,13.70
2018-11-01T14:17:39.086Z,13.70
2018-11-01T14:20:08.995Z,13.60
2018-11-01T14:22:37.124Z,13.60
2018-11-01T14:25:06.295Z,13.60
2018-11-01T14:27:34.485Z,13.70
2018-11-01T14:30:02.640Z,13.70
2018-11-01T14:32:30.997Z,13.70
2018-11-01T14:34:59.112Z,13.70
2018-11-01T14:37:27.286Z,13.70
2018-11-01T14:39:55.450Z,13.70
2018-11-01T14:42:23.633Z,13.70
2018-11-01T14:44:51.804Z,13.80
2018-11-01T14:48:44.536Z,13.70
2018-11-01T14:51:12.714Z,13.70
2018-11-01T14:53:41.093Z,13.70
2018-11-01T14:56:10.567Z,13.60
2018-11-01T14:58:38.697Z,13.50
2018-11-01T15:01:05.644Z,13.50
2018-11-01T15:03:33.785Z,13.40
2018-11-01T15:06:01.908Z,13.50
2018-11-01T15:08:30.041Z,13.50
2018-11-01T15:10:58.222Z,13.40
2018-11-01T15:13:26.388Z,13.60
2018-11-01T15:15:54.657Z,13.50
2018-11-01T15:18:22.871Z,13.40
2018-11-01T15:20:51.032Z,13.30
2018-11-01T15:23:19.237Z,13.30
2018-11-01T15:25:47.369Z,13.30
2018-11-01T15:28:15.735Z,13.20
2018-11-01T15:30:44.190Z,13.20
2018-11-01T15:33:12.364Z,13.20
2018-11-01T15:35:40.520Z,13.10
2018-11-01T15:38:08.659Z,13.20
2018-11-01T15:40:39.260Z,13.30
2018-11-01T15:43:07.388Z,13.30
2018-11-01T15:45:35.532Z,13.30
2018-11-01T15:48:03.891Z,13.30
2018-11-01T15:50:32.002Z,13.40
2018-11-01T15:53:00.148Z,13.40
2018-11-01T15:55:28.308Z,13.40
2018-11-01T15:57:56.418Z,13.30
2018-11-01T16:00:24.572Z,13.30
2018-11-01T16:02:52.781Z,13.40
2018-11-01T16:05:20.973Z,13.40
2018-11-01T16:07:49.112Z,13.40
2018-11-01T16:10:17.385Z,13.40
2018-11-01T16:12:45.428Z,13.40
2018-11-01T16:15:15.044Z,13.30
2018-11-01T16:17:43.230Z,13.40
2018-11-01T16:20:11.522Z,13.40
2018-11-01T16:22:40.371Z,13.40
2018-11-01T16:25:09.285Z,13.40
2018-11-01T16:27:37.495Z,13.40
2018-11-01T16:30:06.813Z,13.40
2018-11-01T16:32:34.930Z,13.40
2018-11-01T16:35:03.131Z,13.40
2018-11-01T16:37:31.331Z,13.40
2018-11-01T16:39:59.467Z,13.50
2018-11-01T16:42:27.681Z,13.40
2018-11-01T16:44:55.805Z,13.40
2018-11-01T16:47:24.049Z,13.40
2018-11-01T16:49:52.628Z,13.40
2018-11-01T16:52:20.759Z,13.40
2018-11-01T16:54:49.040Z,13.30
2018-11-01T16:57:17.229Z,13.40
2018-11-01T16:59:45.353Z,13.30
2018-11-01T17:02:13.607Z,13.30
2018-11-01T17:04:41.724Z,13.40
2018-11-01T17:07:10.178Z,13.60
2018-11-01T17:09:38.303Z,13.70
2018-11-01T17:12:06.476Z,13.60
2018-11-01T17:14:34.628Z,13.60
2018-11-01T17:17:02.795Z,13.60
2018-11-01T17:19:30.983Z,13.40
2018-11-01T17:21:59.119Z,13.30
2018-11-01T17:24:27.217Z,13.20
2018-11-01T17:26:55.430Z,13.20
2018-11-01T17:29:23.547Z,13.30
2018-11-01T17:31:51.724Z,13.40
2018-11-01T17:34:19.917Z,13.30
2018-11-01T17:36:48.087Z,13.20
2018-11-01T17:39:16.295Z,13.10
2018-11-01T17:41:44.457Z,13.00
2018-11-01T17:44:12.606Z,13.10
2018-11-01T17:46:40.838Z,13.20
2018-11-01T17:49:09.140Z,13.00
2018-11-01T17:51:37.303Z,13.00
2018-11-01T17:54:06.297Z,13.20
2018-11-01T17:56:34.706Z,13.20
2018-11-01T17:59:02.947Z,13.20
2018-11-01T18:01:31.185Z,13.20
2018-11-01T18:03:59.272Z,13.10
2018-11-01T18:06:27.439Z,13.20
2018-11-01T18:08:55.716Z,13.20
2018-11-01T18:11:23.763Z,13.10
2018-11-01T18:13:53.048Z,13.10
2018-11-01T18:16:21.317Z,13.00
2018-11-01T18:18:49.761Z,13.00
2018-11-01T18:21:17.956Z,13.10
2018-11-01T18:23:46.109Z,13.20
2018-11-01T18:26:14.263Z,13.20
2018-11-01T18:28:42.502Z,13.20
2018-11-01T18:31:10.615Z,13.30
2018-11-01T18:33:38.760Z,13.30
2018-11-01T18:36:07.028Z,13.20
2018-11-01T18:38:35.205Z,13.30
2018-11-01T18:41:03.500Z,13.20
2018-11-01T18:43:31.652Z,13.20
2018-11-01T18:46:00.061Z,13.20
2018-11-01T18:48:28.293Z,13.10
2018-11-01T18:50:56.424Z,13.10
2018-11-01T18:53:24.655Z,13.00
2018-11-01T18:55:52.888Z,13.00
2018-11-01T18:58:21.451Z,13.00
2018-11-01T19:00:49.590Z,13.00
2018-11-01T19:03:22.035Z,12.90
2018-11-01T19:05:50.127Z,12.90
2018-11-01T19:08:18.292Z,12.80
2018-11-01T19:10:46.399Z,12.80
2018-11-01T19:13:14.623Z,12.80
2018-11-01T19:15:42.770Z,12.80
2018-11-01T19:18:11.025Z,12.90
2018-11-01T19:20:39.207Z,12.80
2018-11-01T19:23:07.804Z,12.80
2018-11-01T19:25:35.982Z,12.70
2018-11-01T19:28:04.191Z,12.70
2018-11-01T19:30:32.202Z,12.80
2018-11-01T19:33:00.385Z,12.80
2018-11-01T19:35:28.583Z,12.70
2018-11-01T19:37:56.700Z,12.70
2018-11-01T19:40:24.936Z,12.70
2018-11-01T19:42:52.963Z,12.50
2018-11-01T19:45:21.164Z,12.50
2018-11-01T19:47:49.296Z,12.50
2018-11-01T19:50:17.416Z,12.40
2018-11-01T19:52:45.608Z,12.40
2018-11-01T19:55:13.984Z,12.20
2018-11-01T19:57:42.768Z,12.20
2018-11-01T20:00:13.907Z,11.90
2018-11-01T20:02:42.111Z,11.70
2018-11-01T20:05:10.810Z,11.60
2018-11-01T20:07:38.924Z,11.40
2018-11-01T20:10:08.449Z,11.30
2018-11-01T20:12:36.616Z,11.40
2018-11-01T20:15:05.968Z,11.40
2018-11-01T20:17:34.491Z,11.30
2018-11-01T20:20:02.695Z,11.20
2018-11-01T20:22:30.843Z,11.10
2018-11-01T20:24:59.029Z,11.00
2018-11-01T20:27:27.221Z,10.80
2018-11-01T20:29:55.457Z,10.70
2018-11-01T20:32:23.652Z,10.60
2018-11-01T20:34:51.901Z,10.40
2018-11-01T20:37:20.109Z,10.30
2018-11-01T20:39:48.316Z,10.10
2018-11-01T20:42:16.440Z,10.00
2018-11-01T20:44:44.603Z,10.00
2018-11-01T20:47:13.213Z,10.00
2018-11-01T20:49:41.383Z,9.80
2018-11-01T20:52:09.531Z,9.60
2018-11-01T20:54:37.938Z,9.60
2018-11-01T20:57:06.145Z,9.60
2018-11-01T20:59:34.487Z,9.50
2018-11-01T21:02:02.651Z,9.40
2018-11-01T21:04:30.825Z,9.30
2018-11-01T21:06:58.996Z,9.20
2018-11-01T21:09:27.193Z,9.10
2018-11-01T21:11:55.602Z,9.00
2018-11-01T21:14:23.628Z,8.90
2018-11-01T21:16:51.832Z,9.00
2018-11-01T21:19:19.966Z,8.80
2018-11-01T21:21:48.132Z,8.90
2018-11-01T21:24:16.314Z,8.80
2018-11-01T21:26:44.478Z,8.80
2018-11-01T21:29:12.732Z,8.80
2018-11-01T21:31:40.834Z,8.80
2018-11-01T21:34:09.261Z,8.80
2018-11-01T21:36:37.499Z,8.80
2018-11-01T21:39:07.535Z,8.80
2018-11-01T21:41:35.732Z,8.60
2018-11-01T21:44:03.850Z,8.30
2018-11-01T21:46:32.087Z,8.40
2018-11-01T21:49:00.282Z,8.50
2018-11-01T21:51:28.434Z,8.50
2018-11-01T21:53:56.712Z,8.50
2018-11-01T21:56:24.846Z,8.40
2018-11-01T21:58:53.111Z,8.20
2018-11-01T22:01:21.311Z,8.20
2018-11-01T22:03:49.444Z,8.20
2018-11-01T22:06:17.619Z,8.30
2018-11-01T22:08:45.792Z,8.40
2018-11-01T22:11:13.856Z,8.50
2018-11-01T22:13:41.940Z,8.30
2018-11-01T22:16:10.116Z,8.40
2018-11-01T22:18:38.288Z,8.40
2018-11-01T22:21:06.455Z,8.50
2018-11-01T22:23:34.555Z,8.30
2018-11-01T22:26:02.721Z,8.30
2018-11-01T22:28:30.935Z,8.20
2018-11-01T22:30:59.070Z,8.20
2018-11-01T22:33:27.252Z,8.10
2018-11-01T22:35:55.456Z,8.10
2018-11-01T22:38:23.611Z,8.00
2018-11-01T22:40:51.820Z,8.10
2018-11-01T22:43:19.948Z,8.10
2018-11-01T22:45:48.132Z,8.00
2018-11-01T22:48:16.319Z,7.90
2018-11-01T22:50:44.462Z,7.90
2018-11-01T22:53:13.566Z,7.90
2018-11-01T22:55:41.743Z,7.70
2018-11-01T22:58:09.891Z,7.80
2018-11-01T23:00:42.070Z,7.60
2018-11-01T23:03:10.395Z,7.60
2018-11-01T23:05:38.554Z,7.50
2018-11-01T23:08:07.158Z,7.40
2018-11-01T23:10:35.420Z,7.50
2018-11-01T23:13:03.915Z,7.50
2018-11-01T23:15:32.031Z,7.40
2018-11-01T23:18:00.200Z,7.40
2018-11-01T23:20:28.399Z,7.30
2018-11-01T23:22:56.547Z,7.20
2018-11-01T23:25:24.839Z,7.20
2018-11-01T23:27:53.021Z,7.10
2018-11-01T23:30:22.091Z,7.10
2018-11-01T23:32:50.191Z,7.20
2018-11-01T23:35:18.247Z,7.50
2018-11-01T23:37:51.872Z,7.50
2018-11-01T23:40:25.606Z,7.30
2018-11-01T23:42:59.166Z,7.30
2018-11-01T23:45:32.800Z,7.30
2018-11-01T23:48:00.237Z,7.30
2018-11-01T23:50:36.568Z,7.30
2018-11-01T23:53:07.716Z,7.30
2018-11-01T23:55:35.785Z,7.40
2018-11-01T23:58:03.891Z,7.40
